createdAt,value
2023-03-08T00:01:45.161Z,7.30
2023-03-08T00:04:11.704Z,7.25
2023-03-08T00:06:38.122Z,7.18
2023-03-08T00:09:04.693Z,6.70
2023-03-08T00:11:31.186Z,6.75
2023-03-08T00:13:57.601Z,7.38
2023-03-08T00:16:24.422Z,7.03
2023-03-08T00:18:50.829Z,7.13
2023-03-08T00:21:18.152Z,6.50
2023-03-08T00:23:45.009Z,7.10
2023-03-08T00:26:11.741Z,7.43
2023-03-08T00:28:38.658Z,7.20
2023-03-08T00:31:09.155Z,7.32
2023-03-08T00:33:35.971Z,7.18
2023-03-08T00:36:06.919Z,7.50
2023-03-08T00:38:35.054Z,6.82
2023-03-08T00:41:01.604Z,7.40
2023-03-08T00:43:28.402Z,7.03
2023-03-08T00:45:54.779Z,7.63
2023-03-08T00:48:21.191Z,8.20
2023-03-08T00:50:47.579Z,8.20
2023-03-08T00:53:14.129Z,7.90
2023-03-08T00:55:47.187Z,7.55
2023-03-08T00:58:13.553Z,8.57
2023-03-08T01:00:39.927Z,8.15
2023-03-08T01:03:06.242Z,7.97
2023-03-08T01:05:32.618Z,8.10
2023-03-08T01:07:58.940Z,9.27
2023-03-08T01:10:25.240Z,9.30
2023-03-08T01:12:51.588Z,8.55
2023-03-08T01:15:17.951Z,9.48
2023-03-08T01:17:44.292Z,10.27
2023-03-08T01:20:10.955Z,10.05
2023-03-08T01:22:37.282Z,9.30
2023-03-08T01:25:03.693Z,9.48
2023-03-08T01:27:30.113Z,9.57
2023-03-08T01:29:56.489Z,9.32
2023-03-08T01:32:22.863Z,10.07
2023-03-08T01:34:49.332Z,10.52
2023-03-08T01:37:15.731Z,11.98
2023-03-08T01:39:42.146Z,11.95
2023-03-08T01:42:08.656Z,10.93
2023-03-08T01:44:51.788Z,10.60
2023-03-08T01:47:20.012Z,10.82
2023-03-08T01:49:47.050Z,11.15
2023-03-08T01:52:19.610Z,12.00
2023-03-08T01:54:51.205Z,13.35
2023-03-08T01:57:17.519Z,13.88
2023-03-08T01:59:44.747Z,14.38
2023-03-08T02:02:11.252Z,15.50
2023-03-08T02:04:37.973Z,15.68
2023-03-08T02:07:04.319Z,16.45
2023-03-08T02:09:30.760Z,16.33
2023-03-08T02:11:59.447Z,15.63
2023-03-08T02:14:26.113Z,17.88
2023-03-08T02:16:53.597Z,17.02
2023-03-08T02:19:35.358Z,17.42
2023-03-08T02:22:11.253Z,17.02
2023-03-08T02:24:37.638Z,19.58
2023-03-08T02:27:09.570Z,20.63
2023-03-08T02:29:35.926Z,22.35
2023-03-08T02:32:02.330Z,20.80
2023-03-08T02:34:28.648Z,21.73
2023-03-08T02:36:55.024Z,21.05
2023-03-08T02:39:21.455Z,21.60
2023-03-08T02:41:47.806Z,21.02
2023-03-08T02:44:14.140Z,22.00
2023-03-08T02:46:40.490Z,21.73
2023-03-08T02:49:06.833Z,21.38
2023-03-08T02:51:33.250Z,22.33
2023-03-08T02:53:59.596Z,22.30
2023-03-08T02:56:25.920Z,22.83
2023-03-08T02:58:52.300Z,22.88
2023-03-08T03:01:18.700Z,27.02
2023-03-08T03:03:45.053Z,29.60
2023-03-08T03:06:15.663Z,30.63
2023-03-08T03:08:42.183Z,33.72
2023-03-08T03:11:12.831Z,31.17
2023-03-08T03:13:39.184Z,30.48
2023-03-08T03:16:08.138Z,30.73
2023-03-08T03:18:34.476Z,31.88
2023-03-08T03:21:08.357Z,31.98
2023-03-08T03:23:34.772Z,32.00
2023-03-08T03:26:05.256Z,32.80
2023-03-08T03:28:31.607Z,34.42
2023-03-08T03:30:58.006Z,35.45
2023-03-08T03:33:24.491Z,38.35
2023-03-08T03:35:50.900Z,35.95
2023-03-08T03:38:17.235Z,36.65
2023-03-08T03:40:43.602Z,35.38
2023-03-08T03:43:09.963Z,34.95
2023-03-08T03:45:36.304Z,34.55
2023-03-08T03:48:02.680Z,31.73
2023-03-08T03:50:29.060Z,34.53
2023-03-08T03:52:55.436Z,33.42
2023-03-08T03:55:21.748Z,33.38
2023-03-08T03:57:48.201Z,32.13
2023-03-08T04:00:14.813Z,32.30
2023-03-08T04:02:41.264Z,35.22
2023-03-08T04:05:07.777Z,34.30
2023-03-08T04:07:34.146Z,34.85
2023-03-08T04:10:00.478Z,37.35
2023-03-08T04:12:26.907Z,33.38
2023-03-08T04:14:53.586Z,32.78
2023-03-08T04:17:19.942Z,32.25
2023-03-08T04:19:48.112Z,30.30
2023-03-08T04:22:14.428Z,32.95
2023-03-08T04:24:40.744Z,29.67
2023-03-08T04:27:07.102Z,34.42
2023-03-08T04:29:33.423Z,33.92
2023-03-08T04:32:00.351Z,32.70
2023-03-08T04:34:27.633Z,32.65
2023-03-08T04:36:53.988Z,33.00
2023-03-08T04:39:20.321Z,31.85
2023-03-08T04:41:46.660Z,33.42
2023-03-08T04:44:13.009Z,32.40
2023-03-08T04:46:39.394Z,34.28
2023-03-08T04:49:05.997Z,32.58
2023-03-08T04:51:32.378Z,31.98
2023-03-08T04:53:58.726Z,31.38
2023-03-08T04:56:25.081Z,34.78
2023-03-08T04:58:51.400Z,35.38
2023-03-08T05:01:19.384Z,35.40
2023-03-08T05:06:14.043Z,35.38
2023-03-08T05:08:40.597Z,35.85
2023-03-08T05:11:07.006Z,38.10
2023-03-08T05:13:34.584Z,39.05
2023-03-08T05:16:01.183Z,38.55
2023-03-08T05:18:27.570Z,39.25
2023-03-08T05:20:58.316Z,38.83
2023-03-08T05:23:25.726Z,39.78
2023-03-08T05:25:56.632Z,43.90
2023-03-08T05:28:23.399Z,40.22
2023-03-08T05:30:50.088Z,38.75
2023-03-08T05:33:18.320Z,38.15
2023-03-08T05:35:52.363Z,38.83
2023-03-08T05:38:18.763Z,36.05
2023-03-08T05:40:45.093Z,38.95
2023-03-08T05:43:11.493Z,36.35
2023-03-08T05:45:38.026Z,36.03
2023-03-08T05:48:04.471Z,36.97
2023-03-08T05:50:30.792Z,35.92
2023-03-08T05:52:57.146Z,39.25
2023-03-08T05:55:23.803Z,38.47
2023-03-08T05:57:50.129Z,38.95
2023-03-08T06:00:17.114Z,37.95
2023-03-08T06:02:43.577Z,39.38
2023-03-08T06:05:10.128Z,37.15
2023-03-08T06:07:36.517Z,42.10
2023-03-08T06:10:03.141Z,42.50
2023-03-08T06:12:29.525Z,44.15
2023-03-08T06:14:55.903Z,40.72
2023-03-08T06:17:22.244Z,44.17
2023-03-08T06:19:48.573Z,44.22
2023-03-08T06:22:15.755Z,42.67
2023-03-08T06:24:42.149Z,40.03
2023-03-08T06:27:08.525Z,40.35
2023-03-08T06:29:34.943Z,42.05
2023-03-08T06:32:02.187Z,42.55
2023-03-08T06:34:28.578Z,43.72
2023-03-08T06:36:57.858Z,41.35
2023-03-08T06:39:24.233Z,41.45
2023-03-08T06:41:50.544Z,44.45
2023-03-08T06:44:16.898Z,42.88
2023-03-08T06:46:43.753Z,43.72
2023-03-08T06:49:10.231Z,41.05
2023-03-08T06:51:36.575Z,38.30
2023-03-08T06:54:02.936Z,41.10
2023-03-08T06:56:29.382Z,39.90
2023-03-08T06:58:55.935Z,38.75
2023-03-08T07:01:22.309Z,40.90
2023-03-08T07:03:48.972Z,37.30
2023-03-08T07:06:15.362Z,39.40
2023-03-08T07:08:41.884Z,38.97
2023-03-08T07:11:11.167Z,38.63
2023-03-08T07:13:38.099Z,38.45
2023-03-08T07:16:08.536Z,41.40
2023-03-08T07:18:34.969Z,40.42
2023-03-08T07:21:01.388Z,40.25
2023-03-08T07:23:27.716Z,40.05
2023-03-08T07:25:54.085Z,40.75
2023-03-08T07:28:20.464Z,39.17
2023-03-08T07:30:48.685Z,40.47
2023-03-08T07:33:15.109Z,37.78
2023-03-08T07:35:41.580Z,37.30
2023-03-08T07:38:08.237Z,34.50
2023-03-08T07:40:34.626Z,35.05
2023-03-08T07:43:01.045Z,36.95
2023-03-08T07:45:27.448Z,36.30
2023-03-08T07:47:53.772Z,33.70
2023-03-08T07:50:20.857Z,35.00
2023-03-08T07:52:47.729Z,37.30
2023-03-08T07:55:14.245Z,32.45
2023-03-08T07:57:40.752Z,32.63
2023-03-08T08:00:07.611Z,32.55
2023-03-08T08:02:34.441Z,33.33
2023-03-08T08:05:01.041Z,31.35
2023-03-08T08:07:27.516Z,33.63
2023-03-08T08:09:54.099Z,34.22
2023-03-08T08:12:20.457Z,30.25
2023-03-08T08:14:46.812Z,29.98
2023-03-08T08:17:13.141Z,30.67
2023-03-08T08:19:39.707Z,28.58
2023-03-08T08:22:06.492Z,28.20
2023-03-08T08:24:32.897Z,26.95
2023-03-08T08:26:59.237Z,27.13
2023-03-08T08:29:25.921Z,27.02
2023-03-08T08:31:53.028Z,27.90
2023-03-08T08:34:22.547Z,25.75
2023-03-08T08:36:48.870Z,23.20
2023-03-08T08:39:15.217Z,25.27
2023-03-08T08:41:41.739Z,25.85
2023-03-08T08:44:08.099Z,23.35
2023-03-08T08:46:35.109Z,23.23
2023-03-08T08:49:01.878Z,22.02
2023-03-08T08:51:28.345Z,22.92
2023-03-08T08:53:55.148Z,23.17
2023-03-08T08:56:27.992Z,22.90
2023-03-08T08:58:59.402Z,23.38
2023-03-08T09:01:27.287Z,20.60
2023-03-08T09:03:53.941Z,21.38
2023-03-08T09:06:21.806Z,19.58
2023-03-08T09:08:52.260Z,18.95
2023-03-08T09:11:18.691Z,19.40
2023-03-08T09:13:45.101Z,18.20
2023-03-08T09:16:17.682Z,18.48
2023-03-08T09:18:44.216Z,17.50
2023-03-08T09:21:10.817Z,18.55
2023-03-08T09:23:37.194Z,15.80
2023-03-08T09:26:04.966Z,16.08
2023-03-08T09:28:31.372Z,16.98
2023-03-08T09:30:57.812Z,14.23
2023-03-08T09:33:24.170Z,13.73
2023-03-08T09:35:57.531Z,14.02
2023-03-08T09:38:24.435Z,13.95
2023-03-08T09:41:01.506Z,13.35
2023-03-08T09:43:54.123Z,14.70
2023-03-08T09:46:23.411Z,13.93
2023-03-08T09:48:50.731Z,12.65
2023-03-08T09:51:18.253Z,11.82
2023-03-08T09:53:49.229Z,13.20
2023-03-08T09:56:21.327Z,13.00
2023-03-08T09:58:49.959Z,12.45
2023-03-08T10:01:34.602Z,12.68
2023-03-08T10:04:10.188Z,11.85
2023-03-08T10:06:44.049Z,11.80
2023-03-08T10:09:10.363Z,12.05
2023-03-08T10:11:40.638Z,11.10
2023-03-08T10:14:13.734Z,11.45
2023-03-08T10:16:44.287Z,11.70
2023-03-08T10:19:21.930Z,10.43
2023-03-08T10:21:48.676Z,11.93
2023-03-08T10:24:18.670Z,9.88
2023-03-08T10:26:45.362Z,9.77
2023-03-08T10:29:12.841Z,11.13
2023-03-08T10:31:39.584Z,10.93
2023-03-08T10:34:08.711Z,10.18
2023-03-08T10:36:35.214Z,9.45
2023-03-08T10:39:09.162Z,8.65
2023-03-08T10:42:01.667Z,9.07
2023-03-08T10:44:45.405Z,9.15
2023-03-08T10:47:19.865Z,8.77
2023-03-08T10:49:47.517Z,9.13
2023-03-08T10:52:23.390Z,9.35
2023-03-08T10:55:00.254Z,10.00
2023-03-08T10:57:27.457Z,10.13
2023-03-08T10:59:54.027Z,9.47
2023-03-08T11:02:22.680Z,9.00
2023-03-08T11:04:53.174Z,10.50
2023-03-08T11:07:24.239Z,9.35
2023-03-08T11:09:50.576Z,8.70
2023-03-08T11:12:26.293Z,8.30
2023-03-08T11:14:52.819Z,7.47
2023-03-08T11:17:23.678Z,8.25
2023-03-08T11:19:59.946Z,7.13
2023-03-08T11:22:29.569Z,7.20
2023-03-08T11:24:58.704Z,6.00
2023-03-08T11:27:28.072Z,6.47
2023-03-08T11:29:57.539Z,6.63
2023-03-08T11:32:30.584Z,6.43
2023-03-08T11:35:06.092Z,6.22
2023-03-08T11:37:50.380Z,6.53
2023-03-08T11:40:25.280Z,7.15
2023-03-08T11:43:10.572Z,7.32
2023-03-08T11:45:46.195Z,7.13
2023-03-08T11:48:15.302Z,6.60
2023-03-08T11:51:14.384Z,6.80
2023-03-08T11:53:59.580Z,6.38
2023-03-08T11:56:34.790Z,6.45
2023-03-08T11:59:13.424Z,6.35
2023-03-08T12:01:44.820Z,6.15
2023-03-08T12:04:13.747Z,7.07
2023-03-08T12:06:42.019Z,6.82
2023-03-08T12:09:11.303Z,7.07
2023-03-08T12:11:42.717Z,7.35
2023-03-08T12:14:20.985Z,6.95
2023-03-08T12:16:54.560Z,7.63
2023-03-08T12:19:25.053Z,8.32
2023-03-08T12:22:24.100Z,7.95
2023-03-08T12:25:15.581Z,7.97
2023-03-08T12:27:45.238Z,7.63
2023-03-08T12:30:34.476Z,8.05
2023-03-08T12:33:02.786Z,7.55
2023-03-08T12:35:34.223Z,7.93
2023-03-08T12:38:01.958Z,7.82
2023-03-08T12:40:31.598Z,8.18
2023-03-08T12:43:09.528Z,8.07
2023-03-08T12:48:05.332Z,7.93
2023-03-08T12:50:36.057Z,8.05
2023-03-08T12:53:02.529Z,8.55
2023-03-08T12:55:31.840Z,8.88
2023-03-08T12:58:00.722Z,9.18
2023-03-08T13:00:33.591Z,8.68
2023-03-08T13:03:01.741Z,8.32
2023-03-08T13:05:30.877Z,8.77
2023-03-08T13:08:12.458Z,8.48
2023-03-08T13:10:55.841Z,8.93
2023-03-08T13:13:38.231Z,9.25
2023-03-08T13:16:14.681Z,7.90
2023-03-08T13:18:42.490Z,8.82
2023-03-08T13:21:14.670Z,9.13
2023-03-08T13:23:44.766Z,9.27
2023-03-08T13:26:40.547Z,9.48
2023-03-08T13:29:18.412Z,8.93
2023-03-08T13:31:45.233Z,8.77
2023-03-08T13:34:23.487Z,9.60
2023-03-08T13:36:49.957Z,16.75
2023-03-08T13:39:19.755Z,10.25
2023-03-08T13:41:46.903Z,10.70
2023-03-08T13:44:17.477Z,9.77
2023-03-08T13:46:44.687Z,12.63
2023-03-08T13:49:20.193Z,10.85
2023-03-08T13:51:49.617Z,11.30
2023-03-08T13:54:20.118Z,11.50
2023-03-08T13:56:52.082Z,11.10
2023-03-08T13:59:21.652Z,13.27
2023-03-08T14:01:50.192Z,11.00
2023-03-08T14:04:18.747Z,11.30
2023-03-08T14:07:14.565Z,11.73
2023-03-08T14:09:40.952Z,12.32
2023-03-08T14:12:07.561Z,11.05
2023-03-08T14:14:38.907Z,10.73
2023-03-08T14:17:05.654Z,11.43
2023-03-08T14:19:42.045Z,10.70
2023-03-08T14:22:08.549Z,9.45
2023-03-08T14:24:35.980Z,8.95
2023-03-08T14:27:25.647Z,8.63
2023-03-08T14:30:00.791Z,8.93
2023-03-08T14:32:35.765Z,8.75
2023-03-08T14:35:07.158Z,8.40
2023-03-08T14:37:34.884Z,7.88
2023-03-08T14:40:13.384Z,8.77
2023-03-08T14:42:50.649Z,8.88
2023-03-08T14:45:17.100Z,8.88
2023-03-08T14:47:49.151Z,8.27
2023-03-08T14:50:23.901Z,8.80
2023-03-08T14:52:51.858Z,11.02
2023-03-08T14:55:36.227Z,9.48
2023-03-08T14:58:04.249Z,10.05
2023-03-08T15:02:57.466Z,9.90
2023-03-08T15:05:29.238Z,10.02
2023-03-08T15:07:56.789Z,11.45
2023-03-08T15:10:28.111Z,9.73
2023-03-08T15:12:54.866Z,11.05
2023-03-08T15:15:21.459Z,10.85
2023-03-08T15:17:48.214Z,13.05
2023-03-08T15:20:14.762Z,12.50
2023-03-08T15:22:48.823Z,26.58
2023-03-08T15:25:23.751Z,13.45
2023-03-08T15:27:50.171Z,15.23
2023-03-08T15:30:21.109Z,12.50
2023-03-08T15:32:47.731Z,10.82
2023-03-08T15:35:14.299Z,11.10
2023-03-08T15:37:40.822Z,11.98
2023-03-08T15:40:11.597Z,11.18
2023-03-08T15:42:37.968Z,12.43
2023-03-08T15:45:04.529Z,11.65
2023-03-08T15:47:30.853Z,11.15
2023-03-08T15:49:57.264Z,11.15
2023-03-08T15:52:30.099Z,11.38
2023-03-08T15:54:57.131Z,9.85
2023-03-08T15:57:23.716Z,10.05
2023-03-08T15:59:51.663Z,12.60
2023-03-08T16:02:19.069Z,14.70
2023-03-08T16:04:47.794Z,10.95
2023-03-08T16:07:19.084Z,11.07
2023-03-08T16:09:46.338Z,11.65
2023-03-08T16:12:14.142Z,9.30
2023-03-08T16:14:40.975Z,9.70
2023-03-08T16:17:09.004Z,10.35
2023-03-08T16:22:02.155Z,8.93
2023-03-08T16:24:28.831Z,9.85
2023-03-08T16:26:55.316Z,9.15
2023-03-08T16:29:22.342Z,10.70
2023-03-08T16:31:49.223Z,9.87
2023-03-08T16:34:15.795Z,10.00
2023-03-08T16:36:42.198Z,11.10
2023-03-08T16:39:08.912Z,10.63
2023-03-08T16:41:36.284Z,10.70
2023-03-08T16:44:03.072Z,9.77
2023-03-08T16:46:29.553Z,10.85
2023-03-08T16:48:56.340Z,10.73
2023-03-08T16:51:24.572Z,11.10
2023-03-08T16:53:50.985Z,11.75
2023-03-08T16:56:24.936Z,10.60
2023-03-08T16:58:51.680Z,11.75
2023-03-08T17:01:19.312Z,12.73
2023-03-08T17:03:45.692Z,11.95
2023-03-08T17:06:13.327Z,11.65
2023-03-08T17:08:39.779Z,12.52
2023-03-08T17:11:06.363Z,12.30
2023-03-08T17:13:33.252Z,13.13
2023-03-08T17:15:59.588Z,13.68
2023-03-08T17:18:26.180Z,11.93
2023-03-08T17:20:52.850Z,13.50
2023-03-08T17:23:19.828Z,11.40
2023-03-08T17:25:46.572Z,12.05
2023-03-08T17:28:12.955Z,12.93
2023-03-08T17:30:39.409Z,14.07
2023-03-08T17:33:05.745Z,11.80
2023-03-08T17:35:32.362Z,12.10
2023-03-08T17:37:58.851Z,14.68
2023-03-08T17:40:25.485Z,14.60
2023-03-08T17:42:51.874Z,15.15
2023-03-08T17:45:18.660Z,13.07
2023-03-08T17:47:45.205Z,14.80
2023-03-08T17:50:15.033Z,13.52
2023-03-08T17:52:41.437Z,16.60
2023-03-08T17:55:07.975Z,15.77
2023-03-08T17:57:37.770Z,19.88
2023-03-08T18:00:05.676Z,16.65
2023-03-08T18:02:32.846Z,15.15
2023-03-08T18:04:59.262Z,12.45
2023-03-08T18:07:27.724Z,17.67
2023-03-08T18:09:54.191Z,16.30
2023-03-08T18:12:20.536Z,16.88
2023-03-08T18:14:50.473Z,18.00
2023-03-08T18:17:16.827Z,16.88
2023-03-08T18:19:43.461Z,16.38
2023-03-08T18:22:09.836Z,17.45
2023-03-08T18:24:36.209Z,33.55
2023-03-08T18:27:05.389Z,18.20
2023-03-08T18:29:35.529Z,21.80
2023-03-08T18:32:02.193Z,24.10
2023-03-08T18:34:28.738Z,23.08
2023-03-08T18:36:55.711Z,22.45
2023-03-08T18:39:22.101Z,21.00
2023-03-08T18:41:48.424Z,19.05
2023-03-08T18:44:14.766Z,19.50
2023-03-08T18:46:41.199Z,19.13
2023-03-08T18:49:08.716Z,20.58
2023-03-08T18:51:36.281Z,21.73
2023-03-08T18:54:03.458Z,23.45
2023-03-08T18:56:30.153Z,23.85
2023-03-08T18:58:57.813Z,22.13
2023-03-08T19:01:24.460Z,21.98
2023-03-08T19:03:51.291Z,21.63
2023-03-08T19:06:17.719Z,21.80
2023-03-08T19:08:44.137Z,22.52
2023-03-08T19:11:18.283Z,22.73
2023-03-08T19:13:44.857Z,20.80
2023-03-08T19:16:24.907Z,21.23
2023-03-08T19:18:53.369Z,20.33
2023-03-08T19:21:21.013Z,23.73
2023-03-08T19:23:47.728Z,20.48
2023-03-08T19:26:34.890Z,20.27
2023-03-08T19:29:01.871Z,18.67
2023-03-08T19:31:29.021Z,19.20
2023-03-08T19:33:55.707Z,20.45
2023-03-08T19:36:22.552Z,20.38
2023-03-08T19:38:48.930Z,24.80
2023-03-08T19:41:16.141Z,22.27
2023-03-08T19:43:42.729Z,20.13
2023-03-08T19:46:09.567Z,22.33
2023-03-08T19:48:36.180Z,39.47
2023-03-08T19:51:02.763Z,20.27
2023-03-08T19:53:29.173Z,20.65
2023-03-08T19:55:55.797Z,21.08
2023-03-08T19:58:22.273Z,21.73
2023-03-08T20:00:48.805Z,25.33
2023-03-08T20:03:16.802Z,25.52
2023-03-08T20:08:10.100Z,40.75
2023-03-08T20:10:36.823Z,24.98
2023-03-08T20:13:03.489Z,19.55
2023-03-08T20:15:30.255Z,20.65
2023-03-08T20:17:56.704Z,17.20
2023-03-08T20:20:23.096Z,17.80
2023-03-08T20:22:49.564Z,18.25
2023-03-08T20:25:16.056Z,19.42
2023-03-08T20:27:43.515Z,18.25
2023-03-08T20:30:10.853Z,19.58
2023-03-08T20:32:37.312Z,17.10
2023-03-08T20:35:04.849Z,16.98
2023-03-08T20:37:31.444Z,18.20
2023-03-08T20:39:59.067Z,19.95
2023-03-08T20:42:25.688Z,18.08
2023-03-08T20:44:52.002Z,19.35
2023-03-08T20:47:18.386Z,18.88
2023-03-08T20:49:44.701Z,20.52
2023-03-08T20:52:11.079Z,20.55
2023-03-08T20:54:37.456Z,19.98
2023-03-08T20:57:04.298Z,19.42
2023-03-08T20:59:30.709Z,50.28
2023-03-08T21:01:57.273Z,58.60
2023-03-08T21:04:23.964Z,37.45
2023-03-08T21:06:50.319Z,42.08
2023-03-08T21:09:16.704Z,33.38
2023-03-08T21:11:43.095Z,41.58
2023-03-08T21:14:10.055Z,24.27
2023-03-08T21:16:36.408Z,20.58
2023-03-08T21:19:03.347Z,21.30
2023-03-08T21:21:34.167Z,21.83
2023-03-08T21:24:01.739Z,25.42
2023-03-08T21:26:28.668Z,26.35
2023-03-08T21:28:55.745Z,28.95
2023-03-08T21:31:22.326Z,28.27
2023-03-08T21:33:49.423Z,30.50
2023-03-08T21:36:16.133Z,25.20
2023-03-08T21:38:42.564Z,25.70
2023-03-08T21:41:22.247Z,25.40
2023-03-08T21:43:48.662Z,23.98
2023-03-08T21:46:15.265Z,20.45
2023-03-08T21:48:41.735Z,22.70
2023-03-08T21:51:08.093Z,22.88
2023-03-08T21:53:34.600Z,22.73
2023-03-08T21:56:01.170Z,19.52
2023-03-08T21:58:27.637Z,19.33
2023-03-08T22:00:54.322Z,20.08
2023-03-08T22:03:20.718Z,18.35
2023-03-08T22:05:47.080Z,19.88
2023-03-08T22:08:13.394Z,21.00
2023-03-08T22:10:39.797Z,19.75
2023-03-08T22:13:06.160Z,20.00
2023-03-08T22:15:32.507Z,21.23
2023-03-08T22:17:58.880Z,18.33
2023-03-08T22:20:25.265Z,17.48
2023-03-08T22:22:51.565Z,18.05
2023-03-08T22:25:17.920Z,18.63
2023-03-08T22:27:44.313Z,16.77
2023-03-08T22:30:11.065Z,19.35
2023-03-08T22:32:38.304Z,19.63
2023-03-08T22:35:05.005Z,18.45
2023-03-08T22:37:31.335Z,18.42
2023-03-08T22:39:58.188Z,16.90
2023-03-08T22:42:24.624Z,18.92
2023-03-08T22:44:51.286Z,19.25
2023-03-08T22:47:17.746Z,26.42
2023-03-08T22:49:44.111Z,23.38
2023-03-08T22:52:10.599Z,21.33
2023-03-08T22:54:36.931Z,19.40
2023-03-08T22:57:03.394Z,19.00
2023-03-08T22:59:29.728Z,18.35
2023-03-08T23:01:56.437Z,18.25
2023-03-08T23:04:22.855Z,16.20
2023-03-08T23:06:49.228Z,18.23
2023-03-08T23:09:17.047Z,17.05
2023-03-08T23:11:43.470Z,16.45
2023-03-08T23:14:10.176Z,17.25
2023-03-08T23:16:41.983Z,18.05
2023-03-08T23:19:11.103Z,16.10
2023-03-08T23:21:38.213Z,17.10
2023-03-08T23:24:04.731Z,15.57
2023-03-08T23:26:32.634Z,17.38
2023-03-08T23:28:59.668Z,18.45
2023-03-08T23:31:27.574Z,17.48
2023-03-08T23:36:21.770Z,14.65
2023-03-08T23:38:48.752Z,15.43
2023-03-08T23:41:15.554Z,16.85
2023-03-08T23:43:42.384Z,17.30
2023-03-08T23:46:19.000Z,17.38
2023-03-08T23:48:45.974Z,18.20
2023-03-08T23:51:13.946Z,26.98
2023-03-08T23:56:07.269Z,28.05
2023-03-08T23:58:33.663Z,35.10
